Stanford, KY (40484)

9:22 AM EST on December 21, 2014 (GMT -0500)
Powell | Change Station
CLOSE
Current Station
Airport
Location: Danville,
Elevation: 1024 ft
Nearby Weather Stations
Active Advisory: Special Statement

Elev 1024 ft 37.58 °N, 84.77 °W | Updated 7 minutes ago

Fog
Fog
23 °F
Feels Like 23 °F
N
0
Wind Variable Wind from North

Today
High -- | Low -- °F
--% Chance of Precip.
Yesterday
High -- | Low -- °F
Precip. -- in
7:49 AM 5:24 PM
Waning Crescent, 0% visible
Pressure 30.30 in
Visibility 0.2 miles
Clouds Overcast 100 ft
Dew Point 21 °F
Humidity 93%
Rainfall 0.00 in
Snow Depth Not available.
UV 0 out of 12
Pollen .10 out of 12
Air Quality Not available.
Flu Activity Not available.
METAR KDVK 211415Z AUTO 00000KT 1/4SM FZFG OVC001 M05/M06 A3030 RMK AO2

More Conditions Fewer Conditions

Pressure 30.30 in
Visibility 0.2 miles
Clouds Overcast 100 ft
Dew Point 21 °F
Humidity 93%
Rainfall 0.00 in
Snow Depth Not available.
UV 0 out of 12
Pollen .10 out of 12
Air Quality Not available.
Flu Activity Not available.
METAR KDVK 211415Z AUTO 00000KT 1/4SM FZFG OVC001 M05/M06 A3030 RMK AO2

More Conditions Fewer Conditions

10-Day Weather Forecast

Almanac

Astronomy

Dec. 21, 2014 Rise Set
Actual Time
Civil Twilight
Nautical Twilight
Astronomical Twilight
Moon
Length of Visible Light
Length of Day
Tomorrow will be .
, % of the Moon is Illuminated

Today's Extremes

State Highs State Lows

Community

WunderPhotos

Upload Photos

1,779,392 photos uploaded!

WunderBlogs® & News

Nearby

Air Quality

  Air Quality AQ Index Pollutant
Not available.

Snow Depth

Station Depth Elevation

Earthquake Activity

City Distance Mag. Time & Date
Minimum magnitude displayed is 2.5.

Coastal Water Temperatures

Place Temperature

Nearby Weather Stations